ADDS METAR Data

Data at: 0458 UTC 20 Apr 2018

METAR for:KCON (Concord Muni, NH, US)
Text:KCON 200451Z AUTO 31012G17KT 10SM BKN055 OVC075 03/M02 A2983 RMK AO2 SLP105 T00281022 400940000
Temperature: 2.8°C ( 37°F)
Dewpoint: -2.2°C ( 28°F) [RH = 70%]
Pressure (altimeter):29.83 inches Hg (1010.2 mb) [Sea level pressure: 1010.5 mb]
Winds:from the NW (310 degrees) at 14 MPH (12 knots; 6.2 m/s) gusting to 20 MPH (17 knots; 8.7 m/s)
Visibility:10 or more sm (16+ km)
Ceiling:5500 feet AGL
Clouds: broken clouds at 5500 feet AGL, overcast cloud deck at 7500 feet AGL
QC Flag:automated observation with no human augmentation